sensor_id;sensor_type;location;lat;lon;timestamp;P1;durP1;ratioP1;P2;durP2;ratioP2
72408;SDS011;60402;48.082;11.628;2023-08-24T00:00:21;7.65;;;4.80;;
72408;SDS011;60402;48.082;11.628;2023-08-24T00:03:07;7.40;;;5.28;;
72408;SDS011;60402;48.082;11.628;2023-08-24T00:05:53;9.10;;;5.28;;
72408;SDS011;60402;48.082;11.628;2023-08-24T00:08:39;9.75;;;5.32;;
72408;SDS011;60402;48.082;11.628;2023-08-24T00:11:25;8.07;;;5.45;;
72408;SDS011;60402;48.082;11.628;2023-08-24T00:14:11;9.05;;;5.50;;
72408;SDS011;60402;48.082;11.628;2023-08-24T00:16:56;10.10;;;5.75;;
72408;SDS011;60402;48.082;11.628;2023-08-24T00:19:42;9.32;;;6.35;;
72408;SDS011;60402;48.082;11.628;2023-08-24T00:22:28;9.70;;;6.05;;
72408;SDS011;60402;48.082;11.628;2023-08-24T00:25:13;9.75;;;5.97;;
72408;SDS011;60402;48.082;11.628;2023-08-24T00:27:59;9.75;;;6.28;;
72408;SDS011;60402;48.082;11.628;2023-08-24T00:30:45;8.85;;;5.88;;
72408;SDS011;60402;48.082;11.628;2023-08-24T00:33:30;9.98;;;5.95;;
72408;SDS011;60402;48.082;11.628;2023-08-24T00:36:16;9.65;;;6.20;;
72408;SDS011;60402;48.082;11.628;2023-08-24T00:39:03;11.52;;;7.07;;
72408;SDS011;60402;48.082;11.628;2023-08-24T00:41:49;11.00;;;6.75;;
72408;SDS011;60402;48.082;11.628;2023-08-24T00:44:34;10.43;;;7.10;;
72408;SDS011;60402;48.082;11.628;2023-08-24T00:47:20;12.23;;;7.97;;
72408;SDS011;60402;48.082;11.628;2023-08-24T00:50:07;10.93;;;7.40;;
72408;SDS011;60402;48.082;11.628;2023-08-24T00:52:54;11.80;;;7.00;;
72408;SDS011;60402;48.082;11.628;2023-08-24T00:55:39;11.40;;;6.93;;
72408;SDS011;60402;48.082;11.628;2023-08-24T00:58:26;11.55;;;6.68;;
72408;SDS011;60402;48.082;11.628;2023-08-24T01:01:12;11.95;;;6.97;;
72408;SDS011;60402;48.082;11.628;2023-08-24T01:03:58;9.77;;;7.05;;
72408;SDS011;60402;48.082;11.628;2023-08-24T01:06:44;10.02;;;6.45;;
72408;SDS011;60402;48.082;11.628;2023-08-24T01:09:30;9.10;;;6.60;;
72408;SDS011;60402;48.082;11.628;2023-08-24T01:12:30;9.88;;;7.00;;
72408;SDS011;60402;48.082;11.628;2023-08-24T01:18:34;10.77;;;6.75;;
72408;SDS011;60402;48.082;11.628;2023-08-24T01:21:21;10.60;;;6.78;;
72408;SDS011;60402;48.082;11.628;2023-08-24T01:24:12;9.85;;;6.40;;
72408;SDS011;60402;48.082;11.628;2023-08-24T01:27:02;9.45;;;6.60;;
72408;SDS011;60402;48.082;11.628;2023-08-24T01:29:50;9.85;;;6.82;;
72408;SDS011;60402;48.082;11.628;2023-08-24T01:32:37;10.07;;;6.97;;
72408;SDS011;60402;48.082;11.628;2023-08-24T01:35:23;10.10;;;7.25;;
72408;SDS011;60402;48.082;11.628;2023-08-24T01:38:09;10.45;;;7.43;;
72408;SDS011;60402;48.082;11.628;2023-08-24T01:44:06;12.20;;;7.18;;
72408;SDS011;60402;48.082;11.628;2023-08-24T01:46:54;11.52;;;6.90;;
72408;SDS011;60402;48.082;11.628;2023-08-24T01:49:43;9.93;;;6.75;;
72408;SDS011;60402;48.082;11.628;2023-08-24T01:52:29;11.25;;;7.00;;
72408;SDS011;60402;48.082;11.628;2023-08-24T01:55:20;11.18;;;6.93;;
72408;SDS011;60402;48.082;11.628;2023-08-24T01:58:05;10.85;;;7.10;;
72408;SDS011;60402;48.082;11.628;2023-08-24T02:00:51;11.13;;;6.75;;
72408;SDS011;60402;48.082;11.628;2023-08-24T02:03:37;10.90;;;7.82;;
72408;SDS011;60402;48.082;11.628;2023-08-24T02:06:24;11.13;;;7.00;;
72408;SDS011;60402;48.082;11.628;2023-08-24T02:09:10;9.98;;;6.43;;
72408;SDS011;60402;48.082;11.628;2023-08-24T02:11:55;10.75;;;6.88;;
72408;SDS011;60402;48.082;11.628;2023-08-24T02:14:41;11.23;;;7.07;;
72408;SDS011;60402;48.082;11.628;2023-08-24T02:17:26;10.23;;;6.72;;
72408;SDS011;60402;48.082;11.628;2023-08-24T02:20:12;10.82;;;7.10;;
72408;SDS011;60402;48.082;11.628;2023-08-24T02:22:58;11.32;;;7.15;;
72408;SDS011;60402;48.082;11.628;2023-08-24T02:25:44;10.32;;;6.68;;
72408;SDS011;60402;48.082;11.628;2023-08-24T02:28:29;10.40;;;6.78;;
72408;SDS011;60402;48.082;11.628;2023-08-24T02:31:15;10.93;;;7.20;;
72408;SDS011;60402;48.082;11.628;2023-08-24T02:34:01;9.25;;;6.80;;
72408;SDS011;60402;48.082;11.628;2023-08-24T02:36:47;10.77;;;6.88;;
72408;SDS011;60402;48.082;11.628;2023-08-24T02:39:33;10.48;;;6.50;;
72408;SDS011;60402;48.082;11.628;2023-08-24T02:42:19;11.93;;;7.10;;
72408;SDS011;60402;48.082;11.628;2023-08-24T02:45:04;10.20;;;7.18;;
72408;SDS011;60402;48.082;11.628;2023-08-24T02:47:50;11.07;;;6.97;;
72408;SDS011;60402;48.082;11.628;2023-08-24T02:50:36;11.63;;;7.03;;
72408;SDS011;60402;48.082;11.628;2023-08-24T02:53:22;12.50;;;7.60;;
72408;SDS011;60402;48.082;11.628;2023-08-24T02:56:08;12.25;;;7.30;;
72408;SDS011;60402;48.082;11.628;2023-08-24T02:58:53;9.45;;;6.80;;
72408;SDS011;60402;48.082;11.628;2023-08-24T03:01:39;12.48;;;7.57;;
72408;SDS011;60402;48.082;11.628;2023-08-24T03:04:26;10.27;;;7.28;;
72408;SDS011;60402;48.082;11.628;2023-08-24T03:07:12;11.85;;;7.68;;
72408;SDS011;60402;48.082;11.628;2023-08-24T03:09:57;11.85;;;7.60;;
72408;SDS011;60402;48.082;11.628;2023-08-24T03:12:43;11.32;;;7.05;;
72408;SDS011;60402;48.082;11.628;2023-08-24T03:15:29;11.25;;;7.35;;
72408;SDS011;60402;48.082;11.628;2023-08-24T03:18:16;11.27;;;7.50;;
72408;SDS011;60402;48.082;11.628;2023-08-24T03:21:02;10.98;;;7.18;;
72408;SDS011;60402;48.082;11.628;2023-08-24T03:23:48;10.55;;;7.55;;
72408;SDS011;60402;48.082;11.628;2023-08-24T03:26:33;12.10;;;7.32;;
72408;SDS011;60402;48.082;11.628;2023-08-24T03:29:19;12.80;;;7.63;;
72408;SDS011;60402;48.082;11.628;2023-08-24T03:32:05;10.35;;;7.20;;
72408;SDS011;60402;48.082;11.628;2023-08-24T03:34:50;12.20;;;7.50;;
72408;SDS011;60402;48.082;11.628;2023-08-24T03:37:36;12.77;;;7.07;;
72408;SDS011;60402;48.082;11.628;2023-08-24T03:40:21;10.65;;;6.95;;
72408;SDS011;60402;48.082;11.628;2023-08-24T03:43:07;9.55;;;7.10;;
72408;SDS011;60402;48.082;11.628;2023-08-24T03:45:53;10.32;;;6.95;;
72408;SDS011;60402;48.082;11.628;2023-08-24T03:48:39;11.70;;;7.03;;
72408;SDS011;60402;48.082;11.628;2023-08-24T03:51:24;10.48;;;7.18;;
72408;SDS011;60402;48.082;11.628;2023-08-24T03:54:10;12.20;;;7.32;;
72408;SDS011;60402;48.082;11.628;2023-08-24T03:56:56;12.57;;;7.65;;
72408;SDS011;60402;48.082;11.628;2023-08-24T03:59:41;13.00;;;6.90;;
72408;SDS011;60402;48.082;11.628;2023-08-24T04:02:27;10.93;;;7.13;;
72408;SDS011;60402;48.082;11.628;2023-08-24T04:05:13;12.73;;;7.43;;
72408;SDS011;60402;48.082;11.628;2023-08-24T04:07:58;10.63;;;7.38;;
72408;SDS011;60402;48.082;11.628;2023-08-24T04:10:46;10.65;;;7.13;;
72408;SDS011;60402;48.082;11.628;2023-08-24T04:13:31;9.88;;;6.85;;
72408;SDS011;60402;48.082;11.628;2023-08-24T04:16:17;13.50;;;6.97;;
72408;SDS011;60402;48.082;11.628;2023-08-24T04:19:03;10.13;;;6.45;;
72408;SDS011;60402;48.082;11.628;2023-08-24T04:21:48;9.70;;;6.50;;
72408;SDS011;60402;48.082;11.628;2023-08-24T04:24:34;9.75;;;6.72;;
72408;SDS011;60402;48.082;11.628;2023-08-24T04:27:20;11.27;;;7.18;;
72408;SDS011;60402;48.082;11.628;2023-08-24T04:30:07;10.82;;;6.85;;
72408;SDS011;60402;48.082;11.628;2023-08-24T04:32:56;10.10;;;6.75;;
72408;SDS011;60402;48.082;11.628;2023-08-24T04:35:42;9.32;;;6.32;;
72408;SDS011;60402;48.082;11.628;2023-08-24T04:38:28;9.90;;;6.57;;
72408;SDS011;60402;48.082;11.628;2023-08-24T04:41:14;10.60;;;6.55;;
72408;SDS011;60402;48.082;11.628;2023-08-24T04:44:00;10.20;;;6.82;;
72408;SDS011;60402;48.082;11.628;2023-08-24T04:46:46;10.25;;;6.95;;
72408;SDS011;60402;48.082;11.628;2023-08-24T04:49:32;10.25;;;6.82;;
72408;SDS011;60402;48.082;11.628;2023-08-24T04:52:17;11.57;;;7.30;;
72408;SDS011;60402;48.082;11.628;2023-08-24T04:55:03;10.55;;;6.85;;
72408;SDS011;60402;48.082;11.628;2023-08-24T04:57:49;11.25;;;6.72;;
72408;SDS011;60402;48.082;11.628;2023-08-24T05:00:35;12.38;;;7.07;;
72408;SDS011;60402;48.082;11.628;2023-08-24T05:03:21;9.80;;;7.00;;
72408;SDS011;60402;48.082;11.628;2023-08-24T05:06:07;11.68;;;6.88;;
72408;SDS011;60402;48.082;11.628;2023-08-24T05:08:52;9.68;;;6.47;;
72408;SDS011;60402;48.082;11.628;2023-08-24T05:11:38;10.27;;;7.00;;
72408;SDS011;60402;48.082;11.628;2023-08-24T05:14:24;10.02;;;6.55;;
72408;SDS011;60402;48.082;11.628;2023-08-24T05:17:09;9.82;;;6.55;;
72408;SDS011;60402;48.082;11.628;2023-08-24T05:19:55;9.93;;;6.78;;
72408;SDS011;60402;48.082;11.628;2023-08-24T05:22:40;10.05;;;6.72;;
72408;SDS011;60402;48.082;11.628;2023-08-24T05:25:26;11.65;;;7.20;;
72408;SDS011;60402;48.082;11.628;2023-08-24T05:28:12;11.88;;;7.18;;
72408;SDS011;60402;48.082;11.628;2023-08-24T05:30:58;13.13;;;7.53;;
72408;SDS011;60402;48.082;11.628;2023-08-24T05:33:44;11.90;;;7.57;;
72408;SDS011;60402;48.082;11.628;2023-08-24T05:36:30;10.80;;;6.72;;
72408;SDS011;60402;48.082;11.628;2023-08-24T05:39:16;11.05;;;7.32;;
72408;SDS011;60402;48.082;11.628;2023-08-24T05:42:01;10.15;;;6.65;;
72408;SDS011;60402;48.082;11.628;2023-08-24T05:44:47;11.73;;;7.30;;
72408;SDS011;60402;48.082;11.628;2023-08-24T05:47:33;13.40;;;9.07;;
72408;SDS011;60402;48.082;11.628;2023-08-24T05:50:18;14.00;;;7.85;;
72408;SDS011;60402;48.082;11.628;2023-08-24T05:53:04;12.50;;;8.95;;
72408;SDS011;60402;48.082;11.628;2023-08-24T05:55:50;11.68;;;7.78;;
72408;SDS011;60402;48.082;11.628;2023-08-24T05:58:35;12.02;;;7.85;;
72408;SDS011;60402;48.082;11.628;2023-08-24T06:01:21;12.25;;;8.43;;
72408;SDS011;60402;48.082;11.628;2023-08-24T06:04:10;12.15;;;8.10;;
72408;SDS011;60402;48.082;11.628;2023-08-24T06:06:56;14.95;;;8.82;;
72408;SDS011;60402;48.082;11.628;2023-08-24T06:09:42;12.93;;;8.15;;
72408;SDS011;60402;48.082;11.628;2023-08-24T06:12:27;14.30;;;8.07;;
72408;SDS011;60402;48.082;11.628;2023-08-24T06:15:13;14.15;;;8.50;;
72408;SDS011;60402;48.082;11.628;2023-08-24T06:17:59;13.18;;;8.02;;
72408;SDS011;60402;48.082;11.628;2023-08-24T06:20:46;11.90;;;8.50;;
72408;SDS011;60402;48.082;11.628;2023-08-24T06:23:34;13.98;;;9.30;;
72408;SDS011;60402;48.082;11.628;2023-08-24T06:26:19;12.45;;;9.00;;
72408;SDS011;60402;48.082;11.628;2023-08-24T06:29:05;13.10;;;8.75;;
72408;SDS011;60402;48.082;11.628;2023-08-24T06:31:51;13.50;;;8.13;;
72408;SDS011;60402;48.082;11.628;2023-08-24T06:34:36;12.40;;;7.65;;
72408;SDS011;60402;48.082;11.628;2023-08-24T06:37:22;10.73;;;8.63;;
72408;SDS011;60402;48.082;11.628;2023-08-24T06:40:08;12.25;;;7.95;;
72408;SDS011;60402;48.082;11.628;2023-08-24T06:42:54;12.95;;;7.85;;
72408;SDS011;60402;48.082;11.628;2023-08-24T06:45:40;10.25;;;7.07;;
72408;SDS011;60402;48.082;11.628;2023-08-24T06:48:26;11.55;;;8.00;;
72408;SDS011;60402;48.082;11.628;2023-08-24T06:51:12;12.13;;;7.00;;
72408;SDS011;60402;48.082;11.628;2023-08-24T06:53:57;11.57;;;7.38;;
72408;SDS011;60402;48.082;11.628;2023-08-24T06:56:43;10.77;;;6.95;;
72408;SDS011;60402;48.082;11.628;2023-08-24T06:59:29;10.77;;;7.30;;
72408;SDS011;60402;48.082;11.628;2023-08-24T07:02:14;13.77;;;6.78;;
72408;SDS011;60402;48.082;11.628;2023-08-24T07:05:00;10.85;;;6.88;;
72408;SDS011;60402;48.082;11.628;2023-08-24T07:07:46;10.55;;;6.70;;
72408;SDS011;60402;48.082;11.628;2023-08-24T07:10:32;12.20;;;6.38;;
72408;SDS011;60402;48.082;11.628;2023-08-24T07:13:20;11.98;;;6.57;;
72408;SDS011;60402;48.082;11.628;2023-08-24T07:16:06;11.15;;;6.90;;
72408;SDS011;60402;48.082;11.628;2023-08-24T07:18:53;10.57;;;6.90;;
72408;SDS011;60402;48.082;11.628;2023-08-24T07:21:39;9.77;;;6.13;;
72408;SDS011;60402;48.082;11.628;2023-08-24T07:24:24;10.18;;;6.03;;
72408;SDS011;60402;48.082;11.628;2023-08-24T07:27:11;9.80;;;6.38;;
72408;SDS011;60402;48.082;11.628;2023-08-24T07:29:57;10.55;;;6.10;;
72408;SDS011;60402;48.082;11.628;2023-08-24T07:32:43;11.43;;;5.90;;
72408;SDS011;60402;48.082;11.628;2023-08-24T07:35:28;10.23;;;5.72;;
72408;SDS011;60402;48.082;11.628;2023-08-24T07:38:14;10.32;;;5.70;;
72408;SDS011;60402;48.082;11.628;2023-08-24T07:40:59;12.15;;;6.03;;
72408;SDS011;60402;48.082;11.628;2023-08-24T07:43:45;9.32;;;5.32;;
72408;SDS011;60402;48.082;11.628;2023-08-24T07:46:31;9.00;;;5.55;;
72408;SDS011;60402;48.082;11.628;2023-08-24T07:49:17;8.25;;;4.75;;
72408;SDS011;60402;48.082;11.628;2023-08-24T07:52:02;9.48;;;5.40;;
72408;SDS011;60402;48.082;11.628;2023-08-24T07:54:48;10.02;;;5.28;;
72408;SDS011;60402;48.082;11.628;2023-08-24T07:57:34;8.65;;;5.30;;
72408;SDS011;60402;48.082;11.628;2023-08-24T08:00:20;8.85;;;5.40;;
72408;SDS011;60402;48.082;11.628;2023-08-24T08:03:06;7.72;;;5.10;;
72408;SDS011;60402;48.082;11.628;2023-08-24T08:05:52;8.63;;;4.82;;
72408;SDS011;60402;48.082;11.628;2023-08-24T08:08:38;10.55;;;5.40;;
72408;SDS011;60402;48.082;11.628;2023-08-24T08:11:23;10.63;;;5.32;;
72408;SDS011;60402;48.082;11.628;2023-08-24T08:14:09;6.88;;;4.38;;
72408;SDS011;60402;48.082;11.628;2023-08-24T08:16:55;8.05;;;4.88;;
72408;SDS011;60402;48.082;11.628;2023-08-24T08:19:41;8.18;;;5.00;;
72408;SDS011;60402;48.082;11.628;2023-08-24T08:22:27;9.80;;;4.80;;
72408;SDS011;60402;48.082;11.628;2023-08-24T08:25:13;7.00;;;4.55;;
72408;SDS011;60402;48.082;11.628;2023-08-24T08:27:58;7.80;;;5.20;;
72408;SDS011;60402;48.082;11.628;2023-08-24T08:30:44;9.63;;;4.70;;
72408;SDS011;60402;48.082;11.628;2023-08-24T08:33:30;7.90;;;4.70;;
72408;SDS011;60402;48.082;11.628;2023-08-24T08:36:16;9.05;;;4.70;;
72408;SDS011;60402;48.082;11.628;2023-08-24T08:39:02;9.90;;;4.95;;
72408;SDS011;60402;48.082;11.628;2023-08-24T08:41:49;8.93;;;4.97;;
72408;SDS011;60402;48.082;11.628;2023-08-24T08:44:37;9.00;;;4.70;;
72408;SDS011;60402;48.082;11.628;2023-08-24T08:47:23;7.32;;;4.60;;
72408;SDS011;60402;48.082;11.628;2023-08-24T08:50:09;8.43;;;4.80;;
72408;SDS011;60402;48.082;11.628;2023-08-24T08:52:55;9.13;;;5.22;;
72408;SDS011;60402;48.082;11.628;2023-08-24T08:55:41;7.45;;;4.78;;
72408;SDS011;60402;48.082;11.628;2023-08-24T08:58:28;9.70;;;5.20;;
72408;SDS011;60402;48.082;11.628;2023-08-24T09:01:14;10.48;;;5.05;;
72408;SDS011;60402;48.082;11.628;2023-08-24T09:04:00;8.90;;;5.30;;
72408;SDS011;60402;48.082;11.628;2023-08-24T09:06:46;12.50;;;5.28;;
72408;SDS011;60402;48.082;11.628;2023-08-24T09:09:32;9.18;;;5.38;;
72408;SDS011;60402;48.082;11.628;2023-08-24T09:12:18;11.02;;;5.22;;
72408;SDS011;60402;48.082;11.628;2023-08-24T09:15:04;7.50;;;4.82;;
72408;SDS011;60402;48.082;11.628;2023-08-24T09:17:53;10.27;;;4.80;;
72408;SDS011;60402;48.082;11.628;2023-08-24T09:20:41;8.30;;;4.90;;
72408;SDS011;60402;48.082;11.628;2023-08-24T09:23:27;8.48;;;4.60;;
72408;SDS011;60402;48.082;11.628;2023-08-24T09:26:12;7.60;;;4.60;;
72408;SDS011;60402;48.082;11.628;2023-08-24T09:28:59;8.88;;;5.15;;
72408;SDS011;60402;48.082;11.628;2023-08-24T09:31:45;8.85;;;4.70;;
72408;SDS011;60402;48.082;11.628;2023-08-24T09:34:31;8.35;;;5.40;;
72408;SDS011;60402;48.082;11.628;2023-08-24T09:37:16;9.52;;;5.40;;
72408;SDS011;60402;48.082;11.628;2023-08-24T09:40:03;9.98;;;5.63;;
72408;SDS011;60402;48.082;11.628;2023-08-24T09:42:52;10.43;;;5.35;;
72408;SDS011;60402;48.082;11.628;2023-08-24T09:45:38;10.05;;;5.65;;
72408;SDS011;60402;48.082;11.628;2023-08-24T09:48:32;9.30;;;5.57;;
72408;SDS011;60402;48.082;11.628;2023-08-24T09:51:18;9.52;;;5.60;;
72408;SDS011;60402;48.082;11.628;2023-08-24T09:54:05;9.90;;;5.30;;
72408;SDS011;60402;48.082;11.628;2023-08-24T09:56:55;10.98;;;5.25;;
72408;SDS011;60402;48.082;11.628;2023-08-24T09:59:43;8.65;;;5.30;;
72408;SDS011;60402;48.082;11.628;2023-08-24T10:02:31;9.07;;;5.00;;
72408;SDS011;60402;48.082;11.628;2023-08-24T10:05:22;11.15;;;4.70;;
72408;SDS011;60402;48.082;11.628;2023-08-24T10:08:09;9.55;;;5.10;;
72408;SDS011;60402;48.082;11.628;2023-08-24T10:10:56;8.77;;;4.93;;
72408;SDS011;60402;48.082;11.628;2023-08-24T10:16:54;10.80;;;5.75;;
72408;SDS011;60402;48.082;11.628;2023-08-24T10:19:41;10.75;;;5.13;;
72408;SDS011;60402;48.082;11.628;2023-08-24T10:22:29;8.50;;;4.90;;
72408;SDS011;60402;48.082;11.628;2023-08-24T10:25:16;10.75;;;5.25;;
72408;SDS011;60402;48.082;11.628;2023-08-24T10:28:03;7.60;;;4.90;;
72408;SDS011;60402;48.082;11.628;2023-08-24T10:30:51;8.57;;;4.70;;
72408;SDS011;60402;48.082;11.628;2023-08-24T10:33:37;7.80;;;4.00;;
72408;SDS011;60402;48.082;11.628;2023-08-24T10:36:23;7.28;;;3.88;;
72408;SDS011;60402;48.082;11.628;2023-08-24T10:39:09;7.95;;;4.35;;
72408;SDS011;60402;48.082;11.628;2023-08-24T10:41:57;8.02;;;4.10;;
72408;SDS011;60402;48.082;11.628;2023-08-24T10:44:46;8.55;;;4.15;;
72408;SDS011;60402;48.082;11.628;2023-08-24T10:47:33;7.32;;;4.05;;
72408;SDS011;60402;48.082;11.628;2023-08-24T10:50:31;10.35;;;4.78;;
72408;SDS011;60402;48.082;11.628;2023-08-24T10:53:37;7.80;;;4.28;;
72408;SDS011;60402;48.082;11.628;2023-08-24T10:59:20;8.25;;;4.35;;
72408;SDS011;60402;48.082;11.628;2023-08-24T11:02:06;7.78;;;4.63;;
72408;SDS011;60402;48.082;11.628;2023-08-24T11:05:10;9.68;;;4.68;;
72408;SDS011;60402;48.082;11.628;2023-08-24T11:08:02;7.47;;;4.22;;
72408;SDS011;60402;48.082;11.628;2023-08-24T11:10:49;8.52;;;4.60;;
72408;SDS011;60402;48.082;11.628;2023-08-24T11:13:35;8.43;;;4.70;;
72408;SDS011;60402;48.082;11.628;2023-08-24T11:16:39;9.23;;;4.53;;
72408;SDS011;60402;48.082;11.628;2023-08-24T11:19:25;8.52;;;3.67;;
72408;SDS011;60402;48.082;11.628;2023-08-24T11:22:11;6.82;;;3.45;;
72408;SDS011;60402;48.082;11.628;2023-08-24T11:24:58;11.73;;;4.63;;
72408;SDS011;60402;48.082;11.628;2023-08-24T11:27:44;7.90;;;4.22;;
72408;SDS011;60402;48.082;11.628;2023-08-24T11:30:31;8.77;;;3.95;;
72408;SDS011;60402;48.082;11.628;2023-08-24T11:33:27;7.03;;;3.60;;
72408;SDS011;60402;48.082;11.628;2023-08-24T11:36:19;7.07;;;3.60;;
72408;SDS011;60402;48.082;11.628;2023-08-24T11:39:04;9.38;;;3.92;;
72408;SDS011;60402;48.082;11.628;2023-08-24T11:44:47;9.68;;;4.10;;
72408;SDS011;60402;48.082;11.628;2023-08-24T11:47:35;8.13;;;3.70;;
72408;SDS011;60402;48.082;11.628;2023-08-24T11:50:22;8.32;;;4.07;;
72408;SDS011;60402;48.082;11.628;2023-08-24T11:53:08;7.90;;;3.83;;
72408;SDS011;60402;48.082;11.628;2023-08-24T11:55:54;9.02;;;3.85;;
72408;SDS011;60402;48.082;11.628;2023-08-24T11:58:40;10.02;;;4.05;;
72408;SDS011;60402;48.082;11.628;2023-08-24T12:01:26;8.45;;;3.90;;
72408;SDS011;60402;48.082;11.628;2023-08-24T12:04:12;8.15;;;4.00;;
72408;SDS011;60402;48.082;11.628;2023-08-24T12:06:58;9.27;;;4.20;;
72408;SDS011;60402;48.082;11.628;2023-08-24T12:09:44;8.27;;;4.00;;
72408;SDS011;60402;48.082;11.628;2023-08-24T12:12:32;8.18;;;4.32;;
72408;SDS011;60402;48.082;11.628;2023-08-24T12:15:18;8.82;;;4.25;;
72408;SDS011;60402;48.082;11.628;2023-08-24T12:18:09;10.07;;;3.72;;
72408;SDS011;60402;48.082;11.628;2023-08-24T12:21:00;9.00;;;3.03;;
72408;SDS011;60402;48.082;11.628;2023-08-24T12:23:57;6.05;;;3.67;;
72408;SDS011;60402;48.082;11.628;2023-08-24T12:26:42;8.38;;;3.15;;
72408;SDS011;60402;48.082;11.628;2023-08-24T12:29:28;7.00;;;2.67;;
72408;SDS011;60402;48.082;11.628;2023-08-24T12:32:14;7.38;;;3.45;;
72408;SDS011;60402;48.082;11.628;2023-08-24T12:35:05;9.30;;;2.88;;
72408;SDS011;60402;48.082;11.628;2023-08-24T12:37:51;10.43;;;3.45;;
72408;SDS011;60402;48.082;11.628;2023-08-24T12:40:37;9.43;;;2.88;;
72408;SDS011;60402;48.082;11.628;2023-08-24T12:43:22;6.97;;;2.92;;
72408;SDS011;60402;48.082;11.628;2023-08-24T12:46:08;9.15;;;3.13;;
72408;SDS011;60402;48.082;11.628;2023-08-24T12:48:54;10.55;;;2.80;;
72408;SDS011;60402;48.082;11.628;2023-08-24T12:51:40;10.07;;;3.08;;
72408;SDS011;60402;48.082;11.628;2023-08-24T12:54:26;11.23;;;3.40;;
72408;SDS011;60402;48.082;11.628;2023-08-24T12:57:12;7.95;;;2.80;;
72408;SDS011;60402;48.082;11.628;2023-08-24T12:59:58;9.40;;;3.80;;
72408;SDS011;60402;48.082;11.628;2023-08-24T13:02:43;8.45;;;3.35;;
72408;SDS011;60402;48.082;11.628;2023-08-24T13:05:29;13.63;;;3.75;;
72408;SDS011;60402;48.082;11.628;2023-08-24T13:08:15;9.60;;;3.00;;
72408;SDS011;60402;48.082;11.628;2023-08-24T13:11:00;10.07;;;3.63;;
72408;SDS011;60402;48.082;11.628;2023-08-24T13:13:46;9.18;;;3.38;;
72408;SDS011;60402;48.082;11.628;2023-08-24T13:16:32;9.30;;;3.08;;
72408;SDS011;60402;48.082;11.628;2023-08-24T13:19:17;12.32;;;3.35;;
72408;SDS011;60402;48.082;11.628;2023-08-24T13:22:03;10.23;;;3.30;;
72408;SDS011;60402;48.082;11.628;2023-08-24T13:24:49;7.65;;;3.85;;
72408;SDS011;60402;48.082;11.628;2023-08-24T13:27:34;7.50;;;3.50;;
72408;SDS011;60402;48.082;11.628;2023-08-24T13:30:20;7.32;;;3.63;;
72408;SDS011;60402;48.082;11.628;2023-08-24T13:33:06;9.98;;;3.40;;
72408;SDS011;60402;48.082;11.628;2023-08-24T13:35:52;11.40;;;3.55;;
72408;SDS011;60402;48.082;11.628;2023-08-24T13:38:37;10.43;;;3.00;;
72408;SDS011;60402;48.082;11.628;2023-08-24T13:41:23;9.30;;;4.05;;
72408;SDS011;60402;48.082;11.628;2023-08-24T13:44:09;10.13;;;4.22;;
72408;SDS011;60402;48.082;11.628;2023-08-24T13:46:54;11.50;;;3.53;;
72408;SDS011;60402;48.082;11.628;2023-08-24T13:49:40;7.68;;;3.60;;
72408;SDS011;60402;48.082;11.628;2023-08-24T13:52:26;8.73;;;3.33;;
72408;SDS011;60402;48.082;11.628;2023-08-24T13:55:11;10.95;;;4.03;;
72408;SDS011;60402;48.082;11.628;2023-08-24T13:57:57;8.05;;;3.95;;
72408;SDS011;60402;48.082;11.628;2023-08-24T14:00:43;7.60;;;3.78;;
72408;SDS011;60402;48.082;11.628;2023-08-24T14:03:30;10.15;;;3.67;;
72408;SDS011;60402;48.082;11.628;2023-08-24T14:09:03;7.05;;;3.63;;
72408;SDS011;60402;48.082;11.628;2023-08-24T14:11:49;8.18;;;3.85;;
72408;SDS011;60402;48.082;11.628;2023-08-24T14:14:35;8.00;;;3.70;;
72408;SDS011;60402;48.082;11.628;2023-08-24T14:17:20;7.43;;;3.75;;
72408;SDS011;60402;48.082;11.628;2023-08-24T14:20:06;9.55;;;3.70;;
72408;SDS011;60402;48.082;11.628;2023-08-24T14:22:54;10.25;;;4.13;;
72408;SDS011;60402;48.082;11.628;2023-08-24T14:25:39;7.72;;;3.53;;
72408;SDS011;60402;48.082;11.628;2023-08-24T14:28:25;8.48;;;3.70;;
72408;SDS011;60402;48.082;11.628;2023-08-24T14:31:39;10.30;;;3.83;;
72408;SDS011;60402;48.082;11.628;2023-08-24T14:34:25;9.75;;;3.70;;
72408;SDS011;60402;48.082;11.628;2023-08-24T14:37:10;9.18;;;4.10;;
72408;SDS011;60402;48.082;11.628;2023-08-24T14:39:56;9.52;;;3.85;;
72408;SDS011;60402;48.082;11.628;2023-08-24T14:42:42;7.85;;;3.70;;
72408;SDS011;60402;48.082;11.628;2023-08-24T14:45:27;10.50;;;3.58;;
72408;SDS011;60402;48.082;11.628;2023-08-24T14:48:13;8.85;;;3.40;;
72408;SDS011;60402;48.082;11.628;2023-08-24T14:50:59;8.43;;;3.33;;
72408;SDS011;60402;48.082;11.628;2023-08-24T14:53:45;8.18;;;3.50;;
72408;SDS011;60402;48.082;11.628;2023-08-24T14:56:31;9.07;;;3.83;;
72408;SDS011;60402;48.082;11.628;2023-08-24T14:59:17;10.55;;;3.65;;
72408;SDS011;60402;48.082;11.628;2023-08-24T15:02:02;8.77;;;3.63;;
72408;SDS011;60402;48.082;11.628;2023-08-24T15:04:48;8.30;;;3.30;;
72408;SDS011;60402;48.082;11.628;2023-08-24T15:07:34;9.18;;;3.47;;
72408;SDS011;60402;48.082;11.628;2023-08-24T15:10:19;8.80;;;3.47;;
72408;SDS011;60402;48.082;11.628;2023-08-24T15:13:05;8.50;;;3.30;;
72408;SDS011;60402;48.082;11.628;2023-08-24T15:15:52;9.63;;;3.42;;
72408;SDS011;60402;48.082;11.628;2023-08-24T15:18:39;13.02;;;3.75;;
72408;SDS011;60402;48.082;11.628;2023-08-24T15:21:25;9.13;;;3.90;;
72408;SDS011;60402;48.082;11.628;2023-08-24T15:24:10;8.65;;;3.53;;
72408;SDS011;60402;48.082;11.628;2023-08-24T15:26:56;10.65;;;3.90;;
72408;SDS011;60402;48.082;11.628;2023-08-24T15:29:42;11.40;;;3.70;;
72408;SDS011;60402;48.082;11.628;2023-08-24T15:32:27;12.05;;;4.18;;
72408;SDS011;60402;48.082;11.628;2023-08-24T15:35:13;9.95;;;4.53;;
72408;SDS011;60402;48.082;11.628;2023-08-24T15:37:58;11.45;;;3.80;;
72408;SDS011;60402;48.082;11.628;2023-08-24T15:40:51;9.98;;;4.32;;
72408;SDS011;60402;48.082;11.628;2023-08-24T15:43:38;10.18;;;4.13;;
72408;SDS011;60402;48.082;11.628;2023-08-24T15:46:24;8.50;;;3.72;;
72408;SDS011;60402;48.082;11.628;2023-08-24T15:49:09;9.88;;;3.90;;
72408;SDS011;60402;48.082;11.628;2023-08-24T15:51:55;9.00;;;4.30;;
72408;SDS011;60402;48.082;11.628;2023-08-24T15:54:41;12.55;;;3.88;;
72408;SDS011;60402;48.082;11.628;2023-08-24T15:57:26;10.93;;;3.80;;
72408;SDS011;60402;48.082;11.628;2023-08-24T16:00:12;7.47;;;3.60;;
72408;SDS011;60402;48.082;11.628;2023-08-24T16:02:58;9.77;;;3.72;;
72408;SDS011;60402;48.082;11.628;2023-08-24T16:05:44;12.10;;;4.40;;
72408;SDS011;60402;48.082;11.628;2023-08-24T16:08:30;9.85;;;4.45;;
72408;SDS011;60402;48.082;11.628;2023-08-24T16:11:16;9.38;;;4.10;;
72408;SDS011;60402;48.082;11.628;2023-08-24T16:14:01;12.18;;;4.25;;
72408;SDS011;60402;48.082;11.628;2023-08-24T16:16:48;9.20;;;3.80;;
72408;SDS011;60402;48.082;11.628;2023-08-24T16:19:34;10.85;;;4.00;;
72408;SDS011;60402;48.082;11.628;2023-08-24T16:22:19;8.45;;;4.13;;
72408;SDS011;60402;48.082;11.628;2023-08-24T16:25:05;7.72;;;3.55;;
72408;SDS011;60402;48.082;11.628;2023-08-24T16:27:52;9.48;;;3.97;;
72408;SDS011;60402;48.082;11.628;2023-08-24T16:30:37;9.60;;;3.58;;
72408;SDS011;60402;48.082;11.628;2023-08-24T16:33:23;8.88;;;4.15;;
72408;SDS011;60402;48.082;11.628;2023-08-24T16:36:10;11.60;;;3.95;;
72408;SDS011;60402;48.082;11.628;2023-08-24T16:38:55;12.20;;;4.20;;